sensor_id;sensor_type;location;lat;lon;timestamp;pressure;altitude;pressure_sealevel;temperature;humidity
58367;BME280;57745;42.524;12.052;2024-02-04T00:01:15;97478.41;;;15.42;43.42
58367;BME280;57745;42.524;12.052;2024-02-04T00:03:40;97476.25;;;15.50;43.28
58367;BME280;57745;42.524;12.052;2024-02-04T00:06:06;97473.00;;;15.26;43.72
58367;BME280;57745;42.524;12.052;2024-02-04T00:08:32;97463.94;;;15.29;43.07
58367;BME280;57745;42.524;12.052;2024-02-04T00:10:57;97460.25;;;15.35;43.20
58367;BME280;57745;42.524;12.052;2024-02-04T00:13:23;97464.50;;;15.36;43.72
58367;BME280;57745;42.524;12.052;2024-02-04T00:15:48;97453.19;;;15.22;44.29
58367;BME280;57745;42.524;12.052;2024-02-04T00:18:14;97461.00;;;15.36;43.96
58367;BME280;57745;42.524;12.052;2024-02-04T00:20:39;97447.59;;;15.41;43.25
58367;BME280;57745;42.524;12.052;2024-02-04T00:23:05;97454.00;;;15.35;43.26
58367;BME280;57745;42.524;12.052;2024-02-04T00:25:30;97448.66;;;15.31;42.75
58367;BME280;57745;42.524;12.052;2024-02-04T00:27:56;97453.34;;;15.31;42.83
58367;BME280;57745;42.524;12.052;2024-02-04T00:30:21;97449.59;;;15.25;42.65
58367;BME280;57745;42.524;12.052;2024-02-04T00:32:47;97445.91;;;15.31;42.86
58367;BME280;57745;42.524;12.052;2024-02-04T00:35:12;97446.78;;;15.28;42.35
58367;BME280;57745;42.524;12.052;2024-02-04T00:37:38;97451.94;;;15.10;43.38
58367;BME280;57745;42.524;12.052;2024-02-04T00:40:03;97441.06;;;15.23;43.16
58367;BME280;57745;42.524;12.052;2024-02-04T00:42:29;97444.91;;;15.25;43.60
58367;BME280;57745;42.524;12.052;2024-02-04T00:44:54;97440.63;;;15.24;43.43
58367;BME280;57745;42.524;12.052;2024-02-04T00:47:20;97446.06;;;15.12;42.84
58367;BME280;57745;42.524;12.052;2024-02-04T00:49:45;97451.63;;;15.08;42.71
58367;BME280;57745;42.524;12.052;2024-02-04T00:52:11;97441.34;;;15.12;42.99
58367;BME280;57745;42.524;12.052;2024-02-04T00:54:36;97447.28;;;15.23;42.99
58367;BME280;57745;42.524;12.052;2024-02-04T00:57:02;97451.09;;;15.13;42.25
58367;BME280;57745;42.524;12.052;2024-02-04T00:59:27;97435.91;;;15.12;42.75
58367;BME280;57745;42.524;12.052;2024-02-04T01:01:53;97438.28;;;15.10;43.11
58367;BME280;57745;42.524;12.052;2024-02-04T01:04:18;97439.16;;;15.07;43.63
58367;BME280;57745;42.524;12.052;2024-02-04T01:06:44;97440.59;;;15.12;41.79
58367;BME280;57745;42.524;12.052;2024-02-04T01:09:09;97433.75;;;14.74;41.67
58367;BME280;57745;42.524;12.052;2024-02-04T01:11:35;97441.59;;;15.18;41.90
58367;BME280;57745;42.524;12.052;2024-02-04T01:14:00;97439.34;;;15.00;42.11
58367;BME280;57745;42.524;12.052;2024-02-04T01:16:26;97437.66;;;14.90;41.72
58367;BME280;57745;42.524;12.052;2024-02-04T01:18:52;97435.78;;;14.87;42.49
58367;BME280;57745;42.524;12.052;2024-02-04T01:21:17;97443.25;;;14.99;42.69
58367;BME280;57745;42.524;12.052;2024-02-04T01:23:43;97444.75;;;14.87;42.49
58367;BME280;57745;42.524;12.052;2024-02-04T01:26:08;97434.47;;;15.07;42.79
58367;BME280;57745;42.524;12.052;2024-02-04T01:28:34;97433.22;;;14.96;43.33
58367;BME280;57745;42.524;12.052;2024-02-04T01:30:59;97438.09;;;14.88;43.43
58367;BME280;57745;42.524;12.052;2024-02-04T01:33:25;97430.75;;;14.85;43.57
58367;BME280;57745;42.524;12.052;2024-02-04T01:35:50;97440.94;;;14.68;44.02
58367;BME280;57745;42.524;12.052;2024-02-04T01:38:17;97423.53;;;14.62;44.29
58367;BME280;57745;42.524;12.052;2024-02-04T01:40:42;97429.16;;;14.71;44.44
58367;BME280;57745;42.524;12.052;2024-02-04T01:43:07;97426.75;;;14.73;44.50
58367;BME280;57745;42.524;12.052;2024-02-04T01:45:33;97430.25;;;14.74;45.01
58367;BME280;57745;42.524;12.052;2024-02-04T01:47:58;97433.59;;;14.65;45.48
58367;BME280;57745;42.524;12.052;2024-02-04T01:50:24;97426.59;;;14.81;45.34
58367;BME280;57745;42.524;12.052;2024-02-04T01:52:51;97422.13;;;14.87;45.33
58367;BME280;57745;42.524;12.052;2024-02-04T01:55:17;97425.50;;;14.62;46.48
58367;BME280;57745;42.524;12.052;2024-02-04T01:57:44;97430.59;;;14.76;45.99
58367;BME280;57745;42.524;12.052;2024-02-04T02:00:10;97430.19;;;14.78;46.19
58367;BME280;57745;42.524;12.052;2024-02-04T02:02:39;97423.31;;;14.86;46.24
58367;BME280;57745;42.524;12.052;2024-02-04T02:05:06;97422.56;;;14.85;46.42
58367;BME280;57745;42.524;12.052;2024-02-04T02:07:31;97424.28;;;14.79;46.67
58367;BME280;57745;42.524;12.052;2024-02-04T02:09:56;97425.13;;;14.76;46.97
58367;BME280;57745;42.524;12.052;2024-02-04T02:12:27;97419.69;;;14.76;47.29
58367;BME280;57745;42.524;12.052;2024-02-04T02:15:01;97421.97;;;14.78;46.69
58367;BME280;57745;42.524;12.052;2024-02-04T02:18:10;97412.25;;;14.77;46.89
58367;BME280;57745;42.524;12.052;2024-02-04T02:23:31;97405.88;;;14.67;46.91
58367;BME280;57745;42.524;12.052;2024-02-04T02:26:00;97408.06;;;14.72;46.69
58367;BME280;57745;42.524;12.052;2024-02-04T02:28:25;97396.44;;;14.55;46.89
58367;BME280;57745;42.524;12.052;2024-02-04T02:30:51;97398.13;;;14.65;47.11
58367;BME280;57745;42.524;12.052;2024-02-04T02:33:16;97392.84;;;14.58;47.03
58367;BME280;57745;42.524;12.052;2024-02-04T02:35:44;97394.34;;;14.59;47.56
58367;BME280;57745;42.524;12.052;2024-02-04T02:38:26;97388.53;;;14.73;47.55
58367;BME280;57745;42.524;12.052;2024-02-04T02:40:58;97389.25;;;14.61;48.19
58367;BME280;57745;42.524;12.052;2024-02-04T02:43:25;97392.16;;;14.54;47.94
58367;BME280;57745;42.524;12.052;2024-02-04T02:45:51;97382.00;;;14.71;47.62
58367;BME280;57745;42.524;12.052;2024-02-04T02:48:17;97380.06;;;14.55;48.09
58367;BME280;57745;42.524;12.052;2024-02-04T02:50:43;97373.41;;;14.56;48.13
58367;BME280;57745;42.524;12.052;2024-02-04T02:53:08;97374.69;;;14.52;48.56
58367;BME280;57745;42.524;12.052;2024-02-04T02:55:34;97385.16;;;14.53;48.38
58367;BME280;57745;42.524;12.052;2024-02-04T02:57:59;97385.41;;;14.59;48.85
58367;BME280;57745;42.524;12.052;2024-02-04T03:00:25;97375.78;;;14.54;49.43
58367;BME280;57745;42.524;12.052;2024-02-04T03:02:50;97379.91;;;14.46;49.16
58367;BME280;57745;42.524;12.052;2024-02-04T03:05:16;97374.47;;;14.59;49.10
58367;BME280;57745;42.524;12.052;2024-02-04T03:07:41;97379.72;;;14.53;49.71
58367;BME280;57745;42.524;12.052;2024-02-04T03:10:08;97377.03;;;14.66;49.38
58367;BME280;57745;42.524;12.052;2024-02-04T03:12:34;97381.19;;;14.42;50.37
58367;BME280;57745;42.524;12.052;2024-02-04T03:14:59;97375.78;;;14.54;49.99
58367;BME280;57745;42.524;12.052;2024-02-04T03:17:25;97377.91;;;14.47;50.54
58367;BME280;57745;42.524;12.052;2024-02-04T03:19:50;97373.03;;;14.70;50.19
58367;BME280;57745;42.524;12.052;2024-02-04T03:22:21;97377.13;;;14.62;50.12
58367;BME280;57745;42.524;12.052;2024-02-04T03:24:50;97379.91;;;14.46;50.99
58367;BME280;57745;42.524;12.052;2024-02-04T03:27:17;97379.22;;;14.42;51.20
58367;BME280;57745;42.524;12.052;2024-02-04T03:29:43;97376.63;;;14.51;50.95
58367;BME280;57745;42.524;12.052;2024-02-04T03:32:08;97375.03;;;14.54;51.17
58367;BME280;57745;42.524;12.052;2024-02-04T03:34:33;97372.34;;;14.66;51.86
58367;BME280;57745;42.524;12.052;2024-02-04T03:37:00;97373.63;;;14.62;51.58
58367;BME280;57745;42.524;12.052;2024-02-04T03:39:26;97372.69;;;14.68;51.60
58367;BME280;57745;42.524;12.052;2024-02-04T03:41:52;97373.34;;;14.72;51.89
58367;BME280;57745;42.524;12.052;2024-02-04T03:44:17;97371.66;;;14.62;51.71
58367;BME280;57745;42.524;12.052;2024-02-04T03:46:42;97375.19;;;14.47;51.84
58367;BME280;57745;42.524;12.052;2024-02-04T03:49:08;97364.88;;;14.54;51.88
58367;BME280;57745;42.524;12.052;2024-02-04T03:51:34;97370.81;;;14.65;51.77
58367;BME280;57745;42.524;12.052;2024-02-04T03:54:00;97376.34;;;14.62;52.02
58367;BME280;57745;42.524;12.052;2024-02-04T03:56:26;97375.31;;;14.72;51.76
58367;BME280;57745;42.524;12.052;2024-02-04T03:58:51;97364.66;;;14.61;51.60
58367;BME280;57745;42.524;12.052;2024-02-04T04:01:16;97362.00;;;14.74;51.90
58367;BME280;57745;42.524;12.052;2024-02-04T04:03:43;97362.28;;;14.63;52.03
58367;BME280;57745;42.524;12.052;2024-02-04T04:06:09;97378.91;;;14.69;51.76
58367;BME280;57745;42.524;12.052;2024-02-04T04:08:35;97370.72;;;14.69;51.90
58367;BME280;57745;42.524;12.052;2024-02-04T04:11:01;97364.31;;;14.76;51.27
58367;BME280;57745;42.524;12.052;2024-02-04T04:13:27;97374.53;;;14.71;51.78
58367;BME280;57745;42.524;12.052;2024-02-04T04:15:53;97380.19;;;14.64;51.70
58367;BME280;57745;42.524;12.052;2024-02-04T04:18:19;97379.50;;;14.60;51.91
58367;BME280;57745;42.524;12.052;2024-02-04T04:20:44;97379.50;;;14.77;51.68
58367;BME280;57745;42.524;12.052;2024-02-04T04:23:10;97383.78;;;14.61;51.44
58367;BME280;57745;42.524;12.052;2024-02-04T04:25:35;97387.41;;;14.42;52.35
58367;BME280;57745;42.524;12.052;2024-02-04T04:28:01;97388.41;;;14.48;52.46
58367;BME280;57745;42.524;12.052;2024-02-04T04:30:26;97390.00;;;14.62;52.11
58367;BME280;57745;42.524;12.052;2024-02-04T04:32:51;97394.56;;;14.52;52.33
58367;BME280;57745;42.524;12.052;2024-02-04T04:35:17;97383.81;;;14.45;52.40
58367;BME280;57745;42.524;12.052;2024-02-04T04:37:42;97382.66;;;14.59;51.98
58367;BME280;57745;42.524;12.052;2024-02-04T04:40:08;97377.41;;;14.52;52.42
58367;BME280;57745;42.524;12.052;2024-02-04T04:42:34;97380.72;;;14.59;52.56
58367;BME280;57745;42.524;12.052;2024-02-04T04:45:00;97378.88;;;14.56;52.66
58367;BME280;57745;42.524;12.052;2024-02-04T04:47:25;97364.88;;;14.54;52.90
58367;BME280;57745;42.524;12.052;2024-02-04T04:49:50;97365.34;;;14.65;52.58
58367;BME280;57745;42.524;12.052;2024-02-04T04:52:16;97364.38;;;14.72;52.79
58367;BME280;57745;42.524;12.052;2024-02-04T04:54:42;97357.78;;;14.57;53.08
58367;BME280;57745;42.524;12.052;2024-02-04T04:57:07;97360.22;;;14.67;52.93
58367;BME280;57745;42.524;12.052;2024-02-04T04:59:33;97356.34;;;14.52;53.21
58367;BME280;57745;42.524;12.052;2024-02-04T05:02:00;97356.59;;;14.58;53.38
58367;BME280;57745;42.524;12.052;2024-02-04T05:04:25;97362.66;;;14.49;53.29
58367;BME280;57745;42.524;12.052;2024-02-04T05:06:51;97366.84;;;14.54;53.33
58367;BME280;57745;42.524;12.052;2024-02-04T05:09:16;97362.66;;;14.49;53.00
58367;BME280;57745;42.524;12.052;2024-02-04T05:11:42;97345.22;;;14.59;52.91
58367;BME280;57745;42.524;12.052;2024-02-04T05:14:08;97340.72;;;14.53;52.74
58367;BME280;57745;42.524;12.052;2024-02-04T05:16:35;97351.97;;;14.38;53.47
58367;BME280;57745;42.524;12.052;2024-02-04T05:19:02;97351.72;;;14.49;53.13
58367;BME280;57745;42.524;12.052;2024-02-04T05:21:27;97348.22;;;14.65;52.85
58367;BME280;57745;42.524;12.052;2024-02-04T05:23:53;97346.19;;;14.53;52.97
58367;BME280;57745;42.524;12.052;2024-02-04T05:26:18;97332.63;;;14.49;52.78
58367;BME280;57745;42.524;12.052;2024-02-04T05:28:44;97330.78;;;14.46;53.17
58367;BME280;57745;42.524;12.052;2024-02-04T05:31:09;97333.06;;;14.48;53.05
58367;BME280;57745;42.524;12.052;2024-02-04T05:33:35;97344.13;;;14.57;52.83
58367;BME280;57745;42.524;12.052;2024-02-04T05:36:00;97349.25;;;14.55;53.04
58367;BME280;57745;42.524;12.052;2024-02-04T05:38:26;97341.84;;;14.39;53.09
58367;BME280;57745;42.524;12.052;2024-02-04T05:40:51;97335.78;;;14.48;52.97
58367;BME280;57745;42.524;12.052;2024-02-04T05:43:16;97344.75;;;14.48;52.86
58367;BME280;57745;42.524;12.052;2024-02-04T05:45:42;97337.09;;;14.43;52.96
58367;BME280;57745;42.524;12.052;2024-02-04T05:48:08;97333.34;;;14.66;52.53
58367;BME280;57745;42.524;12.052;2024-02-04T05:50:33;97340.81;;;14.49;53.35
58367;BME280;57745;42.524;12.052;2024-02-04T05:52:59;97327.59;;;14.48;53.08
58367;BME280;57745;42.524;12.052;2024-02-04T05:55:24;97328.41;;;14.61;53.20
58367;BME280;57745;42.524;12.052;2024-02-04T05:57:50;97337.56;;;14.54;53.08
58367;BME280;57745;42.524;12.052;2024-02-04T06:00:16;97333.09;;;14.60;52.99
58367;BME280;57745;42.524;12.052;2024-02-04T06:02:41;97338.34;;;14.55;52.70
58367;BME280;57745;42.524;12.052;2024-02-04T06:05:09;97349.53;;;14.44;53.25
58367;BME280;57745;42.524;12.052;2024-02-04T06:07:34;97349.19;;;14.58;52.64
58367;BME280;57745;42.524;12.052;2024-02-04T06:10:00;97342.94;;;14.58;53.02
58367;BME280;57745;42.524;12.052;2024-02-04T06:12:28;97344.56;;;14.55;53.26
58367;BME280;57745;42.524;12.052;2024-02-04T06:14:54;97338.25;;;14.58;53.31
58367;BME280;57745;42.524;12.052;2024-02-04T06:17:20;97343.38;;;14.56;53.05
58367;BME280;57745;42.524;12.052;2024-02-04T06:19:45;97352.22;;;14.60;52.80
58367;BME280;57745;42.524;12.052;2024-02-04T06:22:11;97352.63;;;14.46;53.25
58367;BME280;57745;42.524;12.052;2024-02-04T06:24:36;97375.44;;;14.36;53.86
58367;BME280;57745;42.524;12.052;2024-02-04T06:27:04;97369.28;;;14.64;53.08
58367;BME280;57745;42.524;12.052;2024-02-04T06:29:30;97362.66;;;14.49;53.12
58367;BME280;57745;42.524;12.052;2024-02-04T06:31:55;97360.94;;;14.55;53.42
58367;BME280;57745;42.524;12.052;2024-02-04T06:34:21;97352.41;;;14.53;52.97
58367;BME280;57745;42.524;12.052;2024-02-04T06:36:47;97343.81;;;14.55;52.82
58367;BME280;57745;42.524;12.052;2024-02-04T06:39:13;97344.03;;;14.60;52.84
58367;BME280;57745;42.524;12.052;2024-02-04T06:41:39;97334.16;;;14.50;53.33
58367;BME280;57745;42.524;12.052;2024-02-04T06:44:04;97330.56;;;14.53;53.49
58367;BME280;57745;42.524;12.052;2024-02-04T06:46:30;97328.66;;;14.66;52.80
58367;BME280;57745;42.524;12.052;2024-02-04T06:48:55;97343.50;;;14.65;53.04
58367;BME280;57745;42.524;12.052;2024-02-04T06:51:21;97350.47;;;14.54;53.81
58367;BME280;57745;42.524;12.052;2024-02-04T06:53:47;97356.75;;;14.51;53.81
58367;BME280;57745;42.524;12.052;2024-02-04T06:56:12;97359.56;;;14.47;53.65
58367;BME280;57745;42.524;12.052;2024-02-04T06:58:38;97348.91;;;14.53;53.85
58367;BME280;57745;42.524;12.052;2024-02-04T07:01:04;97371.19;;;14.51;54.30
58367;BME280;57745;42.524;12.052;2024-02-04T07:03:30;97364.19;;;14.50;53.38
58367;BME280;57745;42.524;12.052;2024-02-04T07:05:55;97343.88;;;14.51;53.28
58367;BME280;57745;42.524;12.052;2024-02-04T07:08:21;97349.19;;;14.58;53.03
58367;BME280;57745;42.524;12.052;2024-02-04T07:10:46;97358.72;;;14.50;53.41
58367;BME280;57745;42.524;12.052;2024-02-04T07:13:12;97365.63;;;14.55;53.28
58367;BME280;57745;42.524;12.052;2024-02-04T07:15:38;97374.34;;;14.50;53.35
58367;BME280;57745;42.524;12.052;2024-02-04T07:18:04;97367.75;;;14.47;53.67
58367;BME280;57745;42.524;12.052;2024-02-04T07:20:29;97377.22;;;14.59;52.93
58367;BME280;57745;42.524;12.052;2024-02-04T07:22:55;97374.75;;;14.48;53.31
58367;BME280;57745;42.524;12.052;2024-02-04T07:25:20;97379.91;;;14.46;53.19
58367;BME280;57745;42.524;12.052;2024-02-04T07:27:46;97378.38;;;14.45;53.41
58367;BME280;57745;42.524;12.052;2024-02-04T07:30:11;97376.56;;;14.55;53.02
58367;BME280;57745;42.524;12.052;2024-02-04T07:32:37;97378.66;;;14.63;53.04
58367;BME280;57745;42.524;12.052;2024-02-04T07:35:03;97378.94;;;14.53;53.42
58367;BME280;57745;42.524;12.052;2024-02-04T07:37:29;97375.94;;;14.63;53.02
58367;BME280;57745;42.524;12.052;2024-02-04T07:39:54;97368.28;;;14.58;53.31
58367;BME280;57745;42.524;12.052;2024-02-04T07:42:19;97362.47;;;14.56;53.31
58367;BME280;57745;42.524;12.052;2024-02-04T07:44:45;97380.72;;;14.59;53.76
58367;BME280;57745;42.524;12.052;2024-02-04T07:47:11;97396.34;;;14.43;54.41
58367;BME280;57745;42.524;12.052;2024-02-04T07:49:36;97414.84;;;14.51;54.49
58367;BME280;57745;42.524;12.052;2024-02-04T07:52:02;97420.31;;;14.51;54.20
58367;BME280;57745;42.524;12.052;2024-02-04T07:54:28;97429.34;;;14.48;54.54
58367;BME280;57745;42.524;12.052;2024-02-04T07:56:54;97444.53;;;14.65;53.99
58367;BME280;57745;42.524;12.052;2024-02-04T07:59:19;97454.50;;;14.72;53.42
58367;BME280;57745;42.524;12.052;2024-02-04T08:01:45;97446.75;;;14.70;53.70
58367;BME280;57745;42.524;12.052;2024-02-04T08:04:10;97455.28;;;14.56;53.87
58367;BME280;57745;42.524;12.052;2024-02-04T08:06:36;97450.91;;;14.75;53.59
58367;BME280;57745;42.524;12.052;2024-02-04T08:09:03;97435.28;;;14.76;53.69
58367;BME280;57745;42.524;12.052;2024-02-04T08:11:29;97447.47;;;14.87;53.38
58367;BME280;57745;42.524;12.052;2024-02-04T08:13:55;97440.94;;;14.68;53.68
58367;BME280;57745;42.524;12.052;2024-02-04T08:16:20;97455.94;;;14.77;53.79
58367;BME280;57745;42.524;12.052;2024-02-04T08:18:46;97465.34;;;14.76;53.90
58367;BME280;57745;42.524;12.052;2024-02-04T08:21:12;97455.50;;;14.94;53.26
58367;BME280;57745;42.524;12.052;2024-02-04T08:23:38;97458.47;;;14.84;53.61
58367;BME280;57745;42.524;12.052;2024-02-04T08:26:05;97450.69;;;14.69;53.99
58367;BME280;57745;42.524;12.052;2024-02-04T08:28:30;97452.66;;;14.53;54.65
58367;BME280;57745;42.524;12.052;2024-02-04T08:30:56;97452.09;;;14.90;53.39
58367;BME280;57745;42.524;12.052;2024-02-04T08:33:21;97458.06;;;14.85;53.81
58367;BME280;57745;42.524;12.052;2024-02-04T08:35:48;97452.44;;;14.76;54.07
58367;BME280;57745;42.524;12.052;2024-02-04T08:38:13;97440.84;;;14.72;54.20
58367;BME280;57745;42.524;12.052;2024-02-04T08:40:39;97437.53;;;14.81;54.30
58367;BME280;57745;42.524;12.052;2024-02-04T08:43:04;97452.84;;;14.91;53.57
58367;BME280;57745;42.524;12.052;2024-02-04T08:45:30;97453.56;;;14.79;54.41
58367;BME280;57745;42.524;12.052;2024-02-04T08:47:55;97446.13;;;14.95;53.81
58367;BME280;57745;42.524;12.052;2024-02-04T08:50:21;97454.81;;;14.90;54.06
58367;BME280;57745;42.524;12.052;2024-02-04T08:52:46;97464.13;;;14.77;54.35
58367;BME280;57745;42.524;12.052;2024-02-04T08:55:12;97457.03;;;14.95;53.63
58367;BME280;57745;42.524;12.052;2024-02-04T08:57:37;97456.13;;;15.15;53.37
58367;BME280;57745;42.524;12.052;2024-02-04T09:00:03;97454.94;;;15.16;53.76
58367;BME280;57745;42.524;12.052;2024-02-04T09:02:28;97461.78;;;15.07;53.88
58367;BME280;57745;42.524;12.052;2024-02-04T09:04:54;97457.75;;;15.12;53.62
58367;BME280;57745;42.524;12.052;2024-02-04T09:07:20;97465.91;;;15.28;53.01
58367;BME280;57745;42.524;12.052;2024-02-04T09:09:45;97470.34;;;15.22;53.33
58367;BME280;57745;42.524;12.052;2024-02-04T09:12:11;97471.81;;;15.27;53.09
58367;BME280;57745;42.524;12.052;2024-02-04T09:14:36;97470.19;;;15.29;52.78
58367;BME280;57745;42.524;12.052;2024-02-04T09:17:03;97465.41;;;15.46;52.23
58367;BME280;57745;42.524;12.052;2024-02-04T09:19:29;97458.31;;;15.49;52.19
58367;BME280;57745;42.524;12.052;2024-02-04T09:21:56;97461.38;;;15.51;51.51
58367;BME280;57745;42.524;12.052;2024-02-04T09:24:21;97451.56;;;15.53;51.86
58367;BME280;57745;42.524;12.052;2024-02-04T09:26:47;97452.13;;;15.61;51.58
58367;BME280;57745;42.524;12.052;2024-02-04T09:29:12;97449.41;;;15.61;51.52
58367;BME280;57745;42.524;12.052;2024-02-04T09:31:38;97457.63;;;15.73;51.70
58367;BME280;57745;42.524;12.052;2024-02-04T09:34:03;97460.16;;;15.68;51.86
58367;BME280;57745;42.524;12.052;2024-02-04T09:36:29;97470.88;;;15.75;51.71
58367;BME280;57745;42.524;12.052;2024-02-04T09:38:55;97472.84;;;15.87;51.22
58367;BME280;57745;42.524;12.052;2024-02-04T09:41:21;97481.28;;;15.80;51.29
58367;BME280;57745;42.524;12.052;2024-02-04T09:43:50;97485.78;;;15.99;50.86
58367;BME280;57745;42.524;12.052;2024-02-04T09:46:17;97494.31;;;16.01;50.76
58367;BME280;57745;42.524;12.052;2024-02-04T09:48:44;97490.91;;;15.97;50.75
58367;BME280;57745;42.524;12.052;2024-02-04T09:51:10;97489.41;;;16.09;50.45
58367;BME280;57745;42.524;12.052;2024-02-04T09:53:36;97494.53;;;16.20;50.29
58367;BME280;57745;42.524;12.052;2024-02-04T09:56:03;97510.53;;;16.08;50.34
58367;BME280;57745;42.524;12.052;2024-02-04T09:58:29;97509.13;;;16.29;49.96
58367;BME280;57745;42.524;12.052;2024-02-04T10:00:54;97502.03;;;16.32;49.83
58367;BME280;57745;42.524;12.052;2024-02-04T10:03:20;97485.78;;;16.25;50.16
58367;BME280;57745;42.524;12.052;2024-02-04T10:05:46;97487.22;;;16.42;49.47
58367;BME280;57745;42.524;12.052;2024-02-04T10:08:12;97480.56;;;16.30;50.22
58367;BME280;57745;42.524;12.052;2024-02-04T10:10:39;97481.41;;;16.40;49.62
58367;BME280;57745;42.524;12.052;2024-02-04T10:13:07;97472.34;;;16.43;49.47
58367;BME280;57745;42.524;12.052;2024-02-04T10:15:33;97481.84;;;16.51;49.42
58367;BME280;57745;42.524;12.052;2024-02-04T10:17:58;97471.44;;;16.46;49.36
58367;BME280;57745;42.524;12.052;2024-02-04T10:20:23;97478.78;;;16.24;49.80
58367;BME280;57745;42.524;12.052;2024-02-04T10:22:49;97473.97;;;16.28;49.94
58367;BME280;57745;42.524;12.052;2024-02-04T10:25:20;97476.63;;;16.19;50.31
58367;BME280;57745;42.524;12.052;2024-02-04T10:27:46;97492.56;;;16.07;50.32
58367;BME280;57745;42.524;12.052;2024-02-04T10:30:12;97490.94;;;16.10;50.27
58367;BME280;57745;42.524;12.052;2024-02-04T10:32:38;97478.59;;;16.05;50.13
58367;BME280;57745;42.524;12.052;2024-02-04T10:35:04;97466.44;;;16.06;50.12
58367;BME280;57745;42.524;12.052;2024-02-04T10:37:29;97469.47;;;16.21;50.16
58367;BME280;57745;42.524;12.052;2024-02-04T10:39:55;97462.38;;;16.11;49.83
58367;BME280;57745;42.524;12.052;2024-02-04T10:42:30;97451.97;;;16.06;50.24
58367;BME280;57745;42.524;12.052;2024-02-04T10:44:57;97451.63;;;15.91;50.17
58367;BME280;57745;42.524;12.052;2024-02-04T10:47:32;97460.19;;;16.19;49.92
58367;BME280;57745;42.524;12.052;2024-02-04T10:49:58;97465.66;;;15.93;50.55
58367;BME280;57745;42.524;12.052;2024-02-04T10:52:27;97459.50;;;15.89;50.69
58367;BME280;57745;42.524;12.052;2024-02-04T10:54:53;97467.06;;;15.98;50.54
58367;BME280;57745;42.524;12.052;2024-02-04T10:57:22;97459.75;;;15.95;50.41
58367;BME280;57745;42.524;12.052;2024-02-04T10:59:52;97457.44;;;16.31;49.32
58367;BME280;57745;42.524;12.052;2024-02-04T11:02:19;97456.03;;;16.27;49.82
58367;BME280;57745;42.524;12.052;2024-02-04T11:04:48;97457.75;;;16.21;49.52
58367;BME280;57745;42.524;12.052;2024-02-04T11:07:15;97464.22;;;16.14;49.97
58367;BME280;57745;42.524;12.052;2024-02-04T11:09:40;97459.09;;;16.29;49.47
58367;BME280;57745;42.524;12.052;2024-02-04T11:12:12;97450.13;;;16.15;49.80
58367;BME280;57745;42.524;12.052;2024-02-04T11:14:41;97445.06;;;16.14;50.24
58367;BME280;57745;42.524;12.052;2024-02-04T11:20:26;97453.94;;;16.05;50.09
58367;BME280;57745;42.524;12.052;2024-02-04T11:23:13;97442.88;;;16.22;50.00
58367;BME280;57745;42.524;12.052;2024-02-04T11:25:53;97435.78;;;16.11;50.09
58367;BME280;57745;42.524;12.052;2024-02-04T11:28:21;97425.06;;;16.04;50.16
58367;BME280;57745;42.524;12.052;2024-02-04T11:30:47;97430.53;;;16.04;50.24
58367;BME280;57745;42.524;12.052;2024-02-04T11:33:18;97416.06;;;16.16;50.14
58367;BME280;57745;42.524;12.052;2024-02-04T11:35:44;97406.09;;;16.23;49.46
58367;BME280;57745;42.524;12.052;2024-02-04T11:38:09;97380.06;;;16.05;50.46
58367;BME280;57745;42.524;12.052;2024-02-04T11:40:37;97386.84;;;16.01;50.11
58367;BME280;57745;42.524;12.052;2024-02-04T11:43:13;97385.63;;;16.14;49.92
58367;BME280;57745;42.524;12.052;2024-02-04T11:45:40;97379.72;;;16.16;49.84
58367;BME280;57745;42.524;12.052;2024-02-04T11:48:12;97401.84;;;15.96;49.42
58367;BME280;57745;42.524;12.052;2024-02-04T11:50:38;97398.31;;;16.08;49.45
58367;BME280;57745;42.524;12.052;2024-02-04T11:53:09;97381.28;;;16.04;48.71
58367;BME280;57745;42.524;12.052;2024-02-04T11:55:36;97377.19;;;16.22;48.00
58367;BME280;57745;42.524;12.052;2024-02-04T11:58:03;97384.88;;;16.01;48.14
58367;BME280;57745;42.524;12.052;2024-02-04T12:00:32;97396.25;;;16.12;48.11
58367;BME280;57745;42.524;12.052;2024-02-04T12:03:05;97394.19;;;16.16;47.87
58367;BME280;57745;42.524;12.052;2024-02-04T12:05:35;97380.03;;;16.31;47.44
58367;BME280;57745;42.524;12.052;2024-02-04T12:08:05;97379.50;;;15.98;46.89
58367;BME280;57745;42.524;12.052;2024-02-04T12:10:33;97371.44;;;16.07;46.83
58367;BME280;57745;42.524;12.052;2024-02-04T12:12:59;97364.41;;;16.19;46.87
58367;BME280;57745;42.524;12.052;2024-02-04T12:15:25;97367.13;;;16.19;47.05
58367;BME280;57745;42.524;12.052;2024-02-04T12:17:51;97371.28;;;16.10;46.63
58367;BME280;57745;42.524;12.052;2024-02-04T12:20:16;97384.34;;;15.94;47.50
58367;BME280;57745;42.524;12.052;2024-02-04T12:22:42;97378.97;;;16.03;48.20
58367;BME280;57745;42.524;12.052;2024-02-04T12:25:08;97378.66;;;16.01;48.82
58367;BME280;57745;42.524;12.052;2024-02-04T12:27:34;97373.94;;;16.14;48.73
58367;BME280;57745;42.524;12.052;2024-02-04T12:30:00;97377.63;;;16.07;49.29
58367;BME280;57745;42.524;12.052;2024-02-04T12:32:26;97379.06;;;16.25;48.89
58367;BME280;57745;42.524;12.052;2024-02-04T12:34:52;97377.19;;;16.22;48.91
58367;BME280;57745;42.524;12.052;2024-02-04T12:37:19;97373.94;;;16.14;48.79
58367;BME280;57745;42.524;12.052;2024-02-04T12:39:45;97363.75;;;16.14;48.91
58367;BME280;57745;42.524;12.052;2024-02-04T12:42:15;97358.34;;;16.24;48.33
58367;BME280;57745;42.524;12.052;2024-02-04T12:44:44;97363.66;;;16.05;48.02
58367;BME280;57745;42.524;12.052;2024-02-04T12:47:10;97353.00;;;16.20;47.59
58367;BME280;57745;42.524;12.052;2024-02-04T12:49:36;97355.28;;;16.22;47.50
58367;BME280;57745;42.524;12.052;2024-02-04T12:52:05;97354.34;;;16.15;47.72